Time;durP1;ratioP1;P1;durP2;ratioP2;P2;SDS_P1;SDS_P2;PMS_P1;PMS_P2;Temp;Humidity;BMP_temperature;BMP_pressure;BME280_temperature;BME280_humidity;BME280_pressure;Samples;Min_cycle;Max_cycle;Signal;HPM_P1;HPM_P2
2023/08/02 00:01:44;;;;;;;13.50;5.90;;;;;;;;;;5082619;28;20842;-81
2023/08/02 00:04:10;;;;;;;11.13;6.00;;;;;;;;;;5078988;28;21040;-81
2023/08/02 00:06:37;;;;;;;10.97;5.57;;;;;;;;;;5082356;28;20470;-81
2023/08/02 00:09:03;;;;;;;14.97;6.13;;;;;;;;;;5081274;28;20482;-81
2023/08/02 00:11:31;;;;;;;10.97;6.20;;;;;;;;;;5079869;28;20508;-81
2023/08/02 00:13:58;;;;;;;9.10;5.77;;;;;;;;;;5079756;28;20481;-81
2023/08/02 00:16:24;;;;;;;8.00;5.27;;;;;;;;;;5082461;28;20483;-81
2023/08/02 00:18:50;;;;;;;11.77;5.90;;;;;;;;;;5081868;28;20533;-80
2023/08/02 00:21:18;;;;;;;6.90;4.07;;;;;;;;;;5083884;28;20836;-81
2023/08/02 00:23:46;;;;;;;11.10;4.73;;;;;;;;;;5079212;28;20475;-81
2023/08/02 00:26:12;;;;;;;12.13;5.73;;;;;;;;;;5082471;28;20465;-81
2023/08/02 00:28:40;;;;;;;7.90;4.87;;;;;;;;;;5081102;28;20467;-80
2023/08/02 00:31:06;;;;;;;8.00;5.03;;;;;;;;;;5081611;28;20442;-81
2023/08/02 00:33:33;;;;;;;6.20;4.20;;;;;;;;;;5081213;28;20467;-80
2023/08/02 00:35:59;;;;;;;15.63;4.43;;;;;;;;;;5082427;28;20498;-80
2023/08/02 00:38:25;;;;;;;7.83;5.03;;;;;;;;;;5084014;28;20462;-81
2023/08/02 00:40:52;;;;;;;6.30;4.60;;;;;;;;;;5082365;28;20470;-81
2023/08/02 00:43:18;;;;;;;5.97;4.53;;;;;;;;;;5080064;28;20476;-80
2023/08/02 00:45:46;;;;;;;5.30;4.70;;;;;;;;;;5080352;28;21016;-81
2023/08/02 00:48:13;;;;;;;8.07;5.27;;;;;;;;;;5079231;28;20482;-81
2023/08/02 00:50:39;;;;;;;10.27;5.20;;;;;;;;;;5082406;28;20467;-81
2023/08/02 00:53:06;;;;;;;10.03;4.63;;;;;;;;;;5079935;28;20470;-81
2023/08/02 00:55:33;;;;;;;5.60;4.70;;;;;;;;;;5082228;28;20946;-80
2023/08/02 00:58:00;;;;;;;8.33;5.00;;;;;;;;;;5080837;28;20470;-80
2023/08/02 01:00:27;;;;;;;7.00;4.23;;;;;;;;;;5081908;28;20433;-81
2023/08/02 01:02:55;;;;;;;6.03;4.63;;;;;;;;;;5081006;28;20559;-81
2023/08/02 01:05:24;;;;;;;5.90;4.30;;;;;;;;;;5080411;28;20455;-81
2023/08/02 01:07:53;;;;;;;6.83;4.53;;;;;;;;;;5082728;28;20471;-81
2023/08/02 01:10:23;;;;;;;10.60;5.00;;;;;;;;;;5082648;28;20451;-81
2023/08/02 01:12:50;;;;;;;4.80;4.30;;;;;;;;;;5080163;28;20497;-80
2023/08/02 01:15:17;;;;;;;5.77;4.17;;;;;;;;;;5078887;28;20485;-80
2023/08/02 01:17:44;;;;;;;9.20;5.17;;;;;;;;;;5082185;28;20543;-81
2023/08/02 01:20:12;;;;;;;7.87;4.93;;;;;;;;;;5063629;28;20519;-81
2023/08/02 01:22:38;;;;;;;9.80;4.70;;;;;;;;;;5081821;28;20474;-80
2023/08/02 01:25:05;;;;;;;6.50;4.20;;;;;;;;;;5080375;28;20471;-80
2023/08/02 01:27:35;;;;;;;9.43;5.67;;;;;;;;;;5081606;28;20473;-80
2023/08/02 01:30:02;;;;;;;9.33;5.53;;;;;;;;;;5081505;28;20459;-80
2023/08/02 01:32:29;;;;;;;6.90;4.63;;;;;;;;;;5078100;28;20470;-81
2023/08/02 01:34:56;;;;;;;10.40;5.27;;;;;;;;;;5078669;28;20461;-81
2023/08/02 01:37:23;;;;;;;8.97;5.57;;;;;;;;;;5079615;28;20470;-80
2023/08/02 01:39:50;;;;;;;8.00;5.30;;;;;;;;;;5078486;28;20462;-81
2023/08/02 01:42:17;;;;;;;14.00;5.97;;;;;;;;;;5080906;28;20863;-81
2023/08/02 01:44:43;;;;;;;12.23;6.90;;;;;;;;;;5080584;28;20465;-81
2023/08/02 01:47:10;;;;;;;11.90;7.77;;;;;;;;;;5076737;28;20492;-81
2023/08/02 01:49:36;;;;;;;8.03;5.93;;;;;;;;;;5079475;28;21002;-81
2023/08/02 01:52:04;;;;;;;8.93;6.10;;;;;;;;;;5081415;28;20489;-82
2023/08/02 01:54:31;;;;;;;13.63;6.00;;;;;;;;;;5080323;28;20460;-81
2023/08/02 01:56:58;;;;;;;12.77;6.70;;;;;;;;;;5078451;28;20501;-81
2023/08/02 01:59:24;;;;;;;15.50;6.03;;;;;;;;;;5081965;28;20450;-81
2023/08/02 02:01:51;;;;;;;8.17;5.83;;;;;;;;;;5081219;28;20477;-81
2023/08/02 02:04:17;;;;;;;11.00;6.03;;;;;;;;;;5075697;28;20489;-81
2023/08/02 02:06:43;;;;;;;8.90;5.93;;;;;;;;;;5078042;28;20457;-80
2023/08/02 02:09:10;;;;;;;9.30;6.33;;;;;;;;;;5080142;28;20478;-81
2023/08/02 02:11:37;;;;;;;8.63;5.30;;;;;;;;;;5083693;28;20473;-80
2023/08/02 02:14:04;;;;;;;10.30;6.30;;;;;;;;;;5083515;28;20508;-81
2023/08/02 02:16:30;;;;;;;8.83;5.77;;;;;;;;;;5084671;28;20904;-81
2023/08/02 02:18:56;;;;;;;11.90;6.00;;;;;;;;;;5085201;28;20481;-80
2023/08/02 02:21:23;;;;;;;11.43;5.30;;;;;;;;;;5084255;28;20461;-81
2023/08/02 02:23:49;;;;;;;8.70;5.37;;;;;;;;;;5083431;28;20685;-81
2023/08/02 02:26:16;;;;;;;9.07;5.87;;;;;;;;;;5085011;28;20963;-81
2023/08/02 02:28:44;;;;;;;6.20;5.10;;;;;;;;;;5083108;28;20469;-81
2023/08/02 02:31:10;;;;;;;7.77;4.93;;;;;;;;;;5085484;28;20450;-81
2023/08/02 02:33:35;;;;;;;12.23;6.17;;;;;;;;;;5082648;28;20498;-81
2023/08/02 02:36:03;;;;;;;11.17;5.23;;;;;;;;;;5081274;28;21015;-80
2023/08/02 02:38:31;;;;;;;10.57;5.30;;;;;;;;;;5084056;28;20340;-81
2023/08/02 02:40:59;;;;;;;9.53;5.90;;;;;;;;;;5085901;28;20462;-81
2023/08/02 02:43:26;;;;;;;11.27;5.87;;;;;;;;;;5084244;28;20462;-81
2023/08/02 02:45:53;;;;;;;11.70;6.60;;;;;;;;;;5083772;28;20459;-80
2023/08/02 02:48:20;;;;;;;12.03;5.87;;;;;;;;;;5082667;28;20474;-81
2023/08/02 02:50:46;;;;;;;8.20;5.17;;;;;;;;;;5084013;28;20439;-81
2023/08/02 02:53:13;;;;;;;15.30;6.80;;;;;;;;;;5082019;28;20486;-81
2023/08/02 02:55:39;;;;;;;10.20;6.07;;;;;;;;;;5085461;28;20450;-81
2023/08/02 02:58:05;;;;;;;14.03;6.37;;;;;;;;;;5085822;28;20479;-81
2023/08/02 03:00:32;;;;;;;10.80;6.03;;;;;;;;;;5082399;28;20472;-81
2023/08/02 03:02:59;;;;;;;13.63;5.93;;;;;;;;;;5082370;28;21044;-81
2023/08/02 03:05:26;;;;;;;10.80;5.63;;;;;;;;;;5082151;28;20453;-81
2023/08/02 03:07:52;;;;;;;13.63;6.80;;;;;;;;;;5079979;28;20835;-81
2023/08/02 03:10:21;;;;;;;9.20;5.63;;;;;;;;;;5083790;28;20459;-81
2023/08/02 03:12:47;;;;;;;10.27;5.23;;;;;;;;;;5080741;28;20482;-81
2023/08/02 03:15:13;;;;;;;12.13;6.37;;;;;;;;;;5082039;28;20453;-81
2023/08/02 03:17:39;;;;;;;9.13;5.70;;;;;;;;;;5082641;28;20481;-80
2023/08/02 03:20:09;;;;;;;12.93;6.20;;;;;;;;;;5081491;28;20451;-81
2023/08/02 03:22:38;;;;;;;8.90;5.60;;;;;;;;;;5080670;28;20473;-81
2023/08/02 03:25:05;;;;;;;11.07;5.43;;;;;;;;;;5083660;28;20882;-81
2023/08/02 03:27:31;;;;;;;14.20;7.20;;;;;;;;;;5081769;28;20516;-81
2023/08/02 03:29:57;;;;;;;22.83;6.33;;;;;;;;;;5082370;28;20454;-81
2023/08/02 03:32:24;;;;;;;14.03;5.20;;;;;;;;;;5084036;28;20470;-81
2023/08/02 03:34:50;;;;;;;8.20;4.90;;;;;;;;;;5083628;28;20462;-81
2023/08/02 03:37:18;;;;;;;7.37;5.60;;;;;;;;;;5082172;28;20481;-80
2023/08/02 03:39:44;;;;;;;15.30;6.20;;;;;;;;;;5083161;28;20439;-80
2023/08/02 03:42:11;;;;;;;6.80;5.50;;;;;;;;;;5084092;28;21031;-81
2023/08/02 03:44:37;;;;;;;10.13;4.70;;;;;;;;;;5081204;28;20459;-80
2023/08/02 03:47:03;;;;;;;7.20;4.87;;;;;;;;;;5080216;28;20487;-81
2023/08/02 03:49:30;;;;;;;14.93;6.47;;;;;;;;;;5083749;28;20812;-81
2023/08/02 03:51:56;;;;;;;8.60;5.37;;;;;;;;;;5082630;28;20849;-81
2023/08/02 03:54:24;;;;;;;11.03;5.40;;;;;;;;;;5081250;28;20489;-81
2023/08/02 03:56:50;;;;;;;12.77;5.20;;;;;;;;;;5081784;28;20482;-81
2023/08/02 03:59:17;;;;;;;8.37;5.80;;;;;;;;;;5082360;28;20486;-81
2023/08/02 04:01:43;;;;;;;8.50;5.43;;;;;;;;;;5081487;28;20466;-81
2023/08/02 04:04:12;;;;;;;13.37;6.00;;;;;;;;;;5081524;28;20487;-81
2023/08/02 04:06:39;;;;;;;7.07;5.00;;;;;;;;;;5082864;28;20990;-81
2023/08/02 04:09:07;;;;;;;11.70;5.47;;;;;;;;;;5080516;28;20843;-81
2023/08/02 04:11:35;;;;;;;11.60;6.13;;;;;;;;;;5077943;28;20566;-81
2023/08/02 04:14:03;;;;;;;9.23;5.87;;;;;;;;;;5081567;28;20489;-81
2023/08/02 04:16:29;;;;;;;14.60;7.57;;;;;;;;;;5080499;28;21021;-81
2023/08/02 04:18:55;;;;;;;16.40;5.50;;;;;;;;;;5080369;28;20972;-81
2023/08/02 04:21:22;;;;;;;10.70;5.40;;;;;;;;;;5081993;28;20449;-81
2023/08/02 04:23:50;;;;;;;13.90;5.50;;;;;;;;;;5079890;28;20471;-81
2023/08/02 04:26:17;;;;;;;9.67;5.87;;;;;;;;;;5081737;28;20968;-81
2023/08/02 04:28:44;;;;;;;12.53;5.67;;;;;;;;;;5081129;28;20477;-81
2023/08/02 04:31:11;;;;;;;12.40;6.50;;;;;;;;;;5081059;28;20464;-81
2023/08/02 04:33:38;;;;;;;11.10;6.00;;;;;;;;;;5079638;28;20557;-81
2023/08/02 04:36:04;;;;;;;8.90;5.30;;;;;;;;;;5079888;28;20447;-81
2023/08/02 04:38:31;;;;;;;12.80;6.13;;;;;;;;;;5081583;28;20481;-81
2023/08/02 04:40:57;;;;;;;13.10;5.57;;;;;;;;;;5081307;28;20463;-81
2023/08/02 04:43:25;;;;;;;11.27;5.43;;;;;;;;;;5080986;28;20492;-81
2023/08/02 04:45:53;;;;;;;8.60;5.70;;;;;;;;;;5081911;28;20991;-81
2023/08/02 04:48:19;;;;;;;19.77;7.27;;;;;;;;;;5078749;28;20474;-81
2023/08/02 04:50:46;;;;;;;9.60;5.10;;;;;;;;;;5083227;28;20459;-81
2023/08/02 04:53:12;;;;;;;11.27;5.53;;;;;;;;;;5079233;28;20481;-80
2023/08/02 04:55:42;;;;;;;9.40;6.20;;;;;;;;;;5075343;28;20450;-81
2023/08/02 04:58:09;;;;;;;14.57;6.20;;;;;;;;;;5063146;28;20470;-80
2023/08/02 05:00:35;;;;;;;10.40;5.57;;;;;;;;;;5080549;28;20457;-81
2023/08/02 05:03:03;;;;;;;13.87;6.70;;;;;;;;;;5078961;28;20474;-81
2023/08/02 05:05:30;;;;;;;14.47;5.60;;;;;;;;;;5081298;28;20454;-81
2023/08/02 05:07:56;;;;;;;8.80;5.53;;;;;;;;;;5078656;28;21077;-81
2023/08/02 05:10:23;;;;;;;11.23;6.13;;;;;;;;;;5080705;28;20981;-81
2023/08/02 05:12:49;;;;;;;13.23;6.60;;;;;;;;;;5079211;28;20486;-81
2023/08/02 05:15:15;;;;;;;14.63;5.63;;;;;;;;;;5080208;28;20465;-81
2023/08/02 05:17:42;;;;;;;12.77;5.63;;;;;;;;;;5080686;28;20483;-80
2023/08/02 05:20:11;;;;;;;11.07;5.90;;;;;;;;;;5081133;28;20462;-81
2023/08/02 05:22:37;;;;;;;14.50;6.17;;;;;;;;;;5079375;28;20467;-81
2023/08/02 05:25:04;;;;;;;14.80;5.67;;;;;;;;;;5080608;28;20462;-81
2023/08/02 05:27:30;;;;;;;13.20;7.67;;;;;;;;;;5079382;28;20470;-80
2023/08/02 05:29:57;;;;;;;15.67;6.83;;;;;;;;;;5082888;28;20445;-81
2023/08/02 05:32:23;;;;;;;9.97;5.50;;;;;;;;;;5080229;28;20474;-81
2023/08/02 05:34:49;;;;;;;10.83;5.67;;;;;;;;;;5078941;28;20478;-81
2023/08/02 05:37:18;;;;;;;10.53;5.90;;;;;;;;;;5080052;28;20996;-81
2023/08/02 05:39:44;;;;;;;11.53;5.93;;;;;;;;;;5077948;28;20447;-81
2023/08/02 05:42:10;;;;;;;12.30;5.90;;;;;;;;;;5081744;28;20489;-81
2023/08/02 05:44:39;;;;;;;10.87;5.97;;;;;;;;;;5081917;28;20490;-80
2023/08/02 05:47:05;;;;;;;9.67;5.43;;;;;;;;;;5081212;28;20460;-81
2023/08/02 05:49:32;;;;;;;13.40;6.43;;;;;;;;;;5083944;28;20467;-81
2023/08/02 05:51:58;;;;;;;9.43;5.87;;;;;;;;;;5084888;28;20459;-81
2023/08/02 05:54:26;;;;;;;12.30;6.50;;;;;;;;;;5084787;28;20435;-81
2023/08/02 05:56:52;;;;;;;10.00;5.40;;;;;;;;;;5085985;28;20458;-80
2023/08/02 05:59:18;;;;;;;14.03;6.03;;;;;;;;;;5084898;28;21107;-80
2023/08/02 06:01:45;;;;;;;14.93;6.43;;;;;;;;;;5084711;28;20523;-81
2023/08/02 06:04:11;;;;;;;10.83;6.80;;;;;;;;;;5084502;28;20473;-81
2023/08/02 06:06:37;;;;;;;14.43;6.70;;;;;;;;;;5084343;28;20462;-81
2023/08/02 06:09:04;;;;;;;16.50;6.63;;;;;;;;;;5086410;28;20476;-81
2023/08/02 06:11:32;;;;;;;18.97;6.63;;;;;;;;;;5087013;28;20454;-81
2023/08/02 06:13:58;;;;;;;14.03;7.30;;;;;;;;;;5084582;28;20471;-82
2023/08/02 06:16:26;;;;;;;15.60;6.93;;;;;;;;;;5086558;28;20458;-81
2023/08/02 06:18:53;;;;;;;12.13;7.23;;;;;;;;;;5084561;28;20483;-81
2023/08/02 06:21:19;;;;;;;14.80;8.23;;;;;;;;;;5084760;28;20465;-80
2023/08/02 06:23:46;;;;;;;20.43;9.30;;;;;;;;;;5083953;28;20462;-81
2023/08/02 06:26:12;;;;;;;15.23;8.00;;;;;;;;;;5084863;28;20463;-81
2023/08/02 06:28:40;;;;;;;16.80;7.77;;;;;;;;;;5084666;28;20493;-81
2023/08/02 06:31:06;;;;;;;14.90;9.33;;;;;;;;;;5085005;28;20462;-81
2023/08/02 06:33:33;;;;;;;13.57;8.13;;;;;;;;;;5084606;28;20480;-81
2023/08/02 06:35:59;;;;;;;17.30;7.70;;;;;;;;;;5084143;28;20459;-81
2023/08/02 06:38:25;;;;;;;15.43;9.30;;;;;;;;;;5083508;28;21027;-80
2023/08/02 06:40:52;;;;;;;16.00;9.17;;;;;;;;;;5082660;28;20439;-80
2023/08/02 06:43:18;;;;;;;13.13;8.10;;;;;;;;;;5084576;28;20987;-82
2023/08/02 06:45:48;;;;;;;15.40;8.50;;;;;;;;;;5083590;28;20450;-81
2023/08/02 06:48:17;;;;;;;16.60;8.60;;;;;;;;;;5082933;28;20477;-81
2023/08/02 06:50:43;;;;;;;19.10;8.50;;;;;;;;;;5084466;28;20462;-81
2023/08/02 06:53:09;;;;;;;19.73;8.73;;;;;;;;;;5082378;28;20471;-80
2023/08/02 06:55:36;;;;;;;14.80;7.40;;;;;;;;;;5083275;28;20979;-81
2023/08/02 06:58:02;;;;;;;18.10;9.20;;;;;;;;;;5081558;28;20476;-81
2023/08/02 07:00:29;;;;;;;15.77;7.60;;;;;;;;;;5080844;28;20971;-81
2023/08/02 07:03:00;;;;;;;14.47;7.97;;;;;;;;;;5082849;28;21164;-81
2023/08/02 07:05:28;;;;;;;16.17;9.30;;;;;;;;;;5083556;28;20446;-81
2023/08/02 07:07:55;;;;;;;12.67;7.40;;;;;;;;;;5081492;28;20470;-81
2023/08/02 07:10:21;;;;;;;10.90;8.10;;;;;;;;;;5083897;28;20445;-80
2023/08/02 07:12:49;;;;;;;12.50;7.37;;;;;;;;;;5081737;28;20485;-81
2023/08/02 07:15:16;;;;;;;16.87;9.50;;;;;;;;;;5081057;28;20455;-81
2023/08/02 07:17:44;;;;;;;13.63;7.50;;;;;;;;;;5081791;28;20873;-81
2023/08/02 07:20:12;;;;;;;12.70;7.67;;;;;;;;;;5082055;28;20458;-80
2023/08/02 07:22:39;;;;;;;14.50;6.50;;;;;;;;;;5084526;28;20461;-81
2023/08/02 07:25:05;;;;;;;17.10;6.40;;;;;;;;;;5084216;28;20451;-81
2023/08/02 07:27:32;;;;;;;9.90;6.27;;;;;;;;;;5082144;28;20462;-81
2023/08/02 07:29:58;;;;;;;12.50;6.40;;;;;;;;;;5082527;28;20568;-81
2023/08/02 07:32:25;;;;;;;17.77;6.50;;;;;;;;;;5081312;28;20486;-81
2023/08/02 07:34:52;;;;;;;12.77;6.33;;;;;;;;;;5081972;28;20461;-81
2023/08/02 07:37:20;;;;;;;9.53;6.07;;;;;;;;;;5084996;27;20464;-81
2023/08/02 07:39:46;;;;;;;10.10;5.43;;;;;;;;;;5083336;28;20450;-81
2023/08/02 07:42:12;;;;;;;11.30;6.07;;;;;;;;;;5082964;28;20455;-81
2023/08/02 07:44:39;;;;;;;11.60;5.20;;;;;;;;;;5083640;27;20454;-80
2023/08/02 07:47:05;;;;;;;11.83;6.13;;;;;;;;;;5084291;28;20884;-82
2023/08/02 07:49:32;;;;;;;9.47;5.50;;;;;;;;;;5079868;28;20465;-80
2023/08/02 07:51:58;;;;;;;7.70;5.00;;;;;;;;;;5079710;28;20471;-80
2023/08/02 07:54:26;;;;;;;6.90;5.40;;;;;;;;;;5084322;28;20960;-81
2023/08/02 07:56:53;;;;;;;9.10;5.13;;;;;;;;;;5081543;28;20463;-81
2023/08/02 07:59:19;;;;;;;12.40;4.83;;;;;;;;;;5079438;28;20493;-81
2023/08/02 08:01:46;;;;;;;11.23;5.10;;;;;;;;;;5082689;28;20470;-80
2023/08/02 08:04:12;;;;;;;8.73;6.10;;;;;;;;;;5081641;28;20481;-81
2023/08/02 08:06:39;;;;;;;11.37;5.43;;;;;;;;;;5083508;28;20469;-81
2023/08/02 08:09:05;;;;;;;9.20;5.10;;;;;;;;;;5080412;28;20473;-81
2023/08/02 08:11:33;;;;;;;5.80;4.80;;;;;;;;;;5082271;28;20480;-81
2023/08/02 08:13:59;;;;;;;12.20;5.50;;;;;;;;;;5080070;28;20836;-81
2023/08/02 08:16:26;;;;;;;12.47;6.50;;;;;;;;;;5082724;28;20458;-81
2023/08/02 08:18:52;;;;;;;10.73;6.27;;;;;;;;;;5080933;28;20475;-81
2023/08/02 08:21:18;;;;;;;13.93;5.63;;;;;;;;;;5083372;28;20972;-80
2023/08/02 08:23:44;;;;;;;10.73;5.00;;;;;;;;;;5083063;28;20478;-81
2023/08/02 08:26:11;;;;;;;8.53;5.43;;;;;;;;;;5080715;28;20455;-80
2023/08/02 08:28:39;;;;;;;12.63;5.37;;;;;;;;;;5081601;28;20474;-81
2023/08/02 08:31:05;;;;;;;10.50;5.07;;;;;;;;;;5083080;28;20459;-81
2023/08/02 08:33:32;;;;;;;7.37;4.73;;;;;;;;;;5083559;28;20485;-81
2023/08/02 08:35:58;;;;;;;8.63;4.43;;;;;;;;;;5081969;28;20865;-81
2023/08/02 08:38:25;;;;;;;6.60;5.00;;;;;;;;;;5081129;28;20474;-81
2023/08/02 08:40:51;;;;;;;9.40;4.70;;;;;;;;;;5083557;28;20489;-81
2023/08/02 08:43:18;;;;;;;9.63;5.60;;;;;;;;;;5080913;28;20466;-80
2023/08/02 08:45:46;;;;;;;8.17;6.00;;;;;;;;;;5082949;28;20466;-81
2023/08/02 08:48:13;;;;;;;7.63;5.20;;;;;;;;;;5080940;28;20477;-80
2023/08/02 08:50:41;;;;;;;6.00;5.40;;;;;;;;;;5082729;28;20465;-81
2023/08/02 08:53:09;;;;;;;8.03;5.00;;;;;;;;;;5078410;28;20497;-81
2023/08/02 08:55:36;;;;;;;9.87;5.23;;;;;;;;;;5080384;28;20437;-81
2023/08/02 08:58:02;;;;;;;7.87;5.73;;;;;;;;;;5082140;28;20471;-80
2023/08/02 09:00:31;;;;;;;9.53;5.70;;;;;;;;;;5082650;28;20461;-80
2023/08/02 09:02:59;;;;;;;8.30;5.07;;;;;;;;;;5081894;28;20478;-81
2023/08/02 09:05:26;;;;;;;9.33;5.30;;;;;;;;;;5081720;28;20471;-80
2023/08/02 09:07:57;;;;;;;11.07;4.90;;;;;;;;;;5081567;28;20482;-80
2023/08/02 09:10:23;;;;;;;9.80;5.00;;;;;;;;;;5079742;28;20469;-80
2023/08/02 09:12:49;;;;;;;14.17;6.20;;;;;;;;;;5079771;28;20470;-81
2023/08/02 09:15:16;;;;;;;8.70;5.33;;;;;;;;;;5081545;28;20450;-81
2023/08/02 09:17:46;;;;;;;6.10;4.50;;;;;;;;;;5080763;28;20466;-81
2023/08/02 09:20:15;;;;;;;15.40;5.70;;;;;;;;;;5079882;28;20457;-81
2023/08/02 09:22:41;;;;;;;8.10;5.13;;;;;;;;;;5079111;28;20486;-80
2023/08/02 09:25:10;;;;;;;6.70;4.57;;;;;;;;;;5079495;28;20438;-81
2023/08/02 09:27:36;;;;;;;8.00;4.47;;;;;;;;;;5078805;28;20549;-81
2023/08/02 09:30:02;;;;;;;7.80;5.40;;;;;;;;;;5081338;28;20459;-80
2023/08/02 09:32:29;;;;;;;5.77;4.53;;;;;;;;;;5082210;28;20470;-81
2023/08/02 09:34:57;;;;;;;6.53;5.03;;;;;;;;;;5081373;28;20442;-80
2023/08/02 09:37:35;;;;;;;8.97;4.60;;;;;;;;;;5080154;28;20553;-80
2023/08/02 09:40:04;;;;;;;12.60;4.80;;;;;;;;;;5081774;28;20488;-80
2023/08/02 09:42:30;;;;;;;8.10;5.00;;;;;;;;;;5079976;28;20499;-80
2023/08/02 09:44:57;;;;;;;8.97;5.60;;;;;;;;;;5080300;28;20462;-80
2023/08/02 09:47:24;;;;;;;6.83;5.30;;;;;;;;;;5079921;28;20458;-80
2023/08/02 09:50:03;;;;;;;12.67;5.90;;;;;;;;;;5080832;28;20451;-81
2023/08/02 09:52:30;;;;;;;13.80;6.63;;;;;;;;;;5083936;28;20465;-80
2023/08/02 09:54:58;;;;;;;10.20;6.27;;;;;;;;;;5082478;28;20454;-80
2023/08/02 09:57:26;;;;;;;10.70;6.20;;;;;;;;;;5076296;28;20485;-81
2023/08/02 09:59:52;;;;;;;9.70;6.63;;;;;;;;;;5078569;28;20848;-80
2023/08/02 10:02:21;;;;;;;12.53;7.50;;;;;;;;;;5079914;28;20470;-81
2023/08/02 10:04:47;;;;;;;13.30;9.50;;;;;;;;;;5077988;28;20459;-80
2023/08/02 10:07:15;;;;;;;15.43;6.50;;;;;;;;;;5079225;28;20458;-81
2023/08/02 10:09:42;;;;;;;12.37;6.77;;;;;;;;;;5079750;28;21098;-81
2023/08/02 10:12:12;;;;;;;12.67;6.87;;;;;;;;;;5081433;28;20485;-80
2023/08/02 10:14:39;;;;;;;15.93;7.80;;;;;;;;;;5075870;28;20467;-80
2023/08/02 10:17:05;;;;;;;11.17;6.93;;;;;;;;;;5083130;28;20976;-82
2023/08/02 10:19:33;;;;;;;14.53;8.37;;;;;;;;;;5081918;28;20482;-80
2023/08/02 10:22:03;;;;;;;14.73;9.17;;;;;;;;;;5081876;28;20464;-80
2023/08/02 10:24:30;;;;;;;20.03;7.90;;;;;;;;;;5079819;28;20461;-80
2023/08/02 10:26:57;;;;;;;12.20;7.30;;;;;;;;;;5082525;28;20438;-80
2023/08/02 10:29:26;;;;;;;11.17;8.60;;;;;;;;;;5079019;28;20474;-80
2023/08/02 10:31:52;;;;;;;11.37;8.03;;;;;;;;;;5079902;28;21401;-81
2023/08/02 10:34:38;;;;;;;11.00;7.40;;;;;;;;;;5083054;28;20473;-80
2023/08/02 10:37:04;;;;;;;15.10;7.70;;;;;;;;;;5083971;28;20485;-82
2023/08/02 10:39:46;;;;;;;18.93;8.50;;;;;;;;;;5083230;28;20482;-80
2023/08/02 10:42:12;;;;;;;15.37;7.50;;;;;;;;;;5082190;28;20482;-80
2023/08/02 10:45:00;;;;;;;10.23;6.10;;;;;;;;;;5085610;28;20455;-81
2023/08/02 10:47:28;;;;;;;7.23;5.20;;;;;;;;;;5084466;28;20474;-80
2023/08/02 10:49:55;;;;;;;9.50;6.03;;;;;;;;;;5081409;28;20453;-80
2023/08/02 10:52:25;;;;;;;12.50;6.40;;;;;;;;;;5084376;28;20998;-81
2023/08/02 10:55:11;;;;;;;7.63;4.80;;;;;;;;;;5083147;28;20948;-80
2023/08/02 10:57:38;;;;;;;9.87;5.00;;;;;;;;;;5080485;28;20474;-81
2023/08/02 11:00:19;;;;;;;7.10;5.10;;;;;;;;;;5081522;28;20570;-81
2023/08/02 11:02:47;;;;;;;7.60;4.30;;;;;;;;;;5080617;28;20471;-81
2023/08/02 11:05:14;;;;;;;7.37;4.70;;;;;;;;;;5081913;28;20484;-81
2023/08/02 11:07:41;;;;;;;9.67;5.40;;;;;;;;;;5079704;28;20474;-80
2023/08/02 11:10:07;;;;;;;8.73;5.00;;;;;;;;;;5082841;28;20458;-81
2023/08/02 11:12:34;;;;;;;9.03;5.00;;;;;;;;;;5084658;28;20995;-81
2023/08/02 11:15:01;;;;;;;12.70;6.23;;;;;;;;;;5083404;28;20567;-81
2023/08/02 11:17:29;;;;;;;11.13;6.33;;;;;;;;;;5081358;28;20470;-81
2023/08/02 11:19:56;;;;;;;21.40;7.10;;;;;;;;;;5084915;28;20505;-81
2023/08/02 11:22:22;;;;;;;13.20;7.43;;;;;;;;;;5081626;28;20549;-81
2023/08/02 11:24:50;;;;;;;12.90;7.60;;;;;;;;;;5080900;28;21390;-80
2023/08/02 11:27:22;;;;;;;13.13;7.40;;;;;;;;;;5083807;28;20450;-81
2023/08/02 11:29:58;;;;;;;10.00;6.80;;;;;;;;;;5081918;28;20448;-81
2023/08/02 11:32:27;;;;;;;14.00;6.27;;;;;;;;;;5083404;28;20470;-81
2023/08/02 11:34:55;;;;;;;7.77;5.53;;;;;;;;;;5083459;28;20439;-81
2023/08/02 11:37:22;;;;;;;8.03;5.60;;;;;;;;;;5082724;28;20454;-81
2023/08/02 11:39:51;;;;;;;6.70;5.07;;;;;;;;;;5083904;28;20477;-81
2023/08/02 11:42:21;;;;;;;7.13;5.20;;;;;;;;;;5081162;28;20498;-81
2023/08/02 11:44:47;;;;;;;8.60;5.57;;;;;;;;;;5083078;28;20457;-81
2023/08/02 11:47:15;;;;;;;6.77;5.10;;;;;;;;;;5082579;28;20470;-81
2023/08/02 11:49:51;;;;;;;6.63;5.93;;;;;;;;;;5082613;28;20438;-81
2023/08/02 11:52:29;;;;;;;9.00;5.77;;;;;;;;;;5083674;28;20470;-81
2023/08/02 11:54:56;;;;;;;9.40;5.83;;;;;;;;;;5079874;28;20466;-80
2023/08/02 11:57:23;;;;;;;10.30;6.77;;;;;;;;;;5081986;28;20531;-81
2023/08/02 11:59:50;;;;;;;7.37;5.80;;;;;;;;;;5087341;28;20493;-80
2023/08/02 12:02:26;;;;;;;7.13;6.03;;;;;;;;;;5079433;28;20485;-81
2023/08/02 12:04:52;;;;;;;8.80;6.27;;;;;;;;;;5080888;28;20489;-81
2023/08/02 12:07:25;;;;;;;7.77;6.17;;;;;;;;;;5082440;28;20465;-81
2023/08/02 12:09:53;;;;;;;7.20;6.50;;;;;;;;;;5081832;28;20956;-81
2023/08/02 12:12:20;;;;;;;11.77;6.50;;;;;;;;;;5081573;28;20462;-81
2023/08/02 12:14:46;;;;;;;6.50;5.90;;;;;;;;;;5082090;28;20454;-81
2023/08/02 12:17:16;;;;;;;11.20;6.60;;;;;;;;;;5078518;28;20498;-81
2023/08/02 12:19:43;;;;;;;8.90;6.63;;;;;;;;;;5083263;28;20536;-81
2023/08/02 12:22:10;;;;;;;12.73;6.60;;;;;;;;;;5081833;28;20549;-81
2023/08/02 12:24:36;;;;;;;9.50;5.70;;;;;;;;;;5079207;28;20455;-81
2023/08/02 12:27:12;;;;;;;11.03;6.37;;;;;;;;;;5082102;28;20455;-81
2023/08/02 12:29:39;;;;;;;7.70;6.90;;;;;;;;;;5079957;28;20455;-81
2023/08/02 12:32:05;;;;;;;8.40;6.43;;;;;;;;;;5080797;28;20474;-81
2023/08/02 12:34:32;;;;;;;7.63;5.90;;;;;;;;;;5079651;28;20470;-82
2023/08/02 12:37:01;;;;;;;7.13;6.33;;;;;;;;;;5077747;28;20462;-82
2023/08/02 12:39:27;;;;;;;10.50;6.73;;;;;;;;;;5081350;28;20491;-82
2023/08/02 12:41:55;;;;;;;7.73;6.10;;;;;;;;;;5082275;28;20471;-82
2023/08/02 12:44:23;;;;;;;8.77;5.90;;;;;;;;;;5081120;28;21025;-82
2023/08/02 12:46:49;;;;;;;7.20;5.57;;;;;;;;;;5081449;28;20458;-82
2023/08/02 12:49:15;;;;;;;5.63;5.13;;;;;;;;;;5081348;28;20470;-82
2023/08/02 12:51:42;;;;;;;8.90;6.50;;;;;;;;;;5081929;28;20991;-82
2023/08/02 12:54:08;;;;;;;7.90;6.13;;;;;;;;;;5078698;28;20493;-82
2023/08/02 12:56:35;;;;;;;7.27;6.57;;;;;;;;;;5082853;28;20450;-82
2023/08/02 12:59:01;;;;;;;16.80;6.60;;;;;;;;;;5079525;28;20481;-82
2023/08/02 13:01:29;;;;;;;8.03;6.57;;;;;;;;;;5081941;28;20454;-82
2023/08/02 13:03:56;;;;;;;9.87;7.20;;;;;;;;;;5082028;28;20535;-82
2023/08/02 13:06:22;;;;;;;9.77;7.70;;;;;;;;;;5079200;28;20471;-82
2023/08/02 13:08:48;;;;;;;9.73;7.10;;;;;;;;;;5079775;28;20847;-82
2023/08/02 13:11:15;;;;;;;6.60;6.00;;;;;;;;;;5081991;28;20450;-81
2023/08/02 13:13:41;;;;;;;6.47;4.90;;;;;;;;;;5082079;28;20854;-81
2023/08/02 13:16:08;;;;;;;8.50;4.93;;;;;;;;;;5078491;28;20461;-81
2023/08/02 13:18:37;;;;;;;8.10;4.60;;;;;;;;;;5082039;28;20470;-82
2023/08/02 13:21:03;;;;;;;5.17;4.30;;;;;;;;;;5082803;28;20485;-81
2023/08/02 13:23:29;;;;;;;5.70;4.53;;;;;;;;;;5079195;28;21018;-81
2023/08/02 13:25:56;;;;;;;7.63;5.90;;;;;;;;;;5079360;28;20461;-81
2023/08/02 13:28:23;;;;;;;9.40;8.37;;;;;;;;;;5079739;28;20996;-81
2023/08/02 13:30:49;;;;;;;10.30;7.97;;;;;;;;;;5081629;28;20445;-81
2023/08/02 13:33:18;;;;;;;8.20;7.40;;;;;;;;;;5081977;28;20469;-81
2023/08/02 13:35:46;;;;;;;8.47;6.60;;;;;;;;;;5082177;28;20454;-81
2023/08/02 13:38:14;;;;;;;7.50;6.33;;;;;;;;;;5078452;28;20469;-81
2023/08/02 13:40:41;;;;;;;4.43;3.47;;;;;;;;;;5078328;28;21033;-81
2023/08/02 13:43:07;;;;;;;4.53;3.90;;;;;;;;;;5080025;28;20992;-81
2023/08/02 13:45:33;;;;;;;5.50;4.50;;;;;;;;;;5080191;28;20824;-81
2023/08/02 13:48:02;;;;;;;7.80;4.33;;;;;;;;;;5079784;28;20518;-81
2023/08/02 13:50:29;;;;;;;5.47;4.23;;;;;;;;;;5083955;28;20453;-81
2023/08/02 13:52:56;;;;;;;4.80;3.93;;;;;;;;;;5081571;28;20552;-81
2023/08/02 13:55:23;;;;;;;5.10;3.30;;;;;;;;;;5080265;28;20439;-81
2023/08/02 13:57:49;;;;;;;4.03;3.63;;;;;;;;;;5079186;28;20469;-81
2023/08/02 14:00:17;;;;;;;2.40;2.20;;;;;;;;;;5078571;28;20487;-80
2023/08/02 14:02:44;;;;;;;2.90;2.13;;;;;;;;;;5080955;28;20489;-81
2023/08/02 14:05:10;;;;;;;2.60;2.40;;;;;;;;;;5080205;28;20458;-80
2023/08/02 14:07:36;;;;;;;3.13;2.50;;;;;;;;;;5082512;28;20454;-81
2023/08/02 14:10:05;;;;;;;3.00;2.60;;;;;;;;;;5085675;28;20446;-80
2023/08/02 14:12:31;;;;;;;2.60;2.27;;;;;;;;;;5085059;28;20475;-80
2023/08/02 14:14:57;;;;;;;2.27;2.10;;;;;;;;;;5086220;28;20430;-80
2023/08/02 14:17:24;;;;;;;2.60;2.40;;;;;;;;;;5084104;28;20478;-80
2023/08/02 14:19:51;;;;;;;2.93;2.27;;;;;;;;;;5085109;28;20483;-80
2023/08/02 14:22:17;;;;;;;3.13;2.73;;;;;;;;;;5087144;28;20462;-80
2023/08/02 14:24:43;;;;;;;2.60;2.40;;;;;;;;;;5086137;28;20449;-81
2023/08/02 14:27:11;;;;;;;2.10;2.00;;;;;;;;;;5085500;28;20438;-82
2023/08/02 14:29:38;;;;;;;2.47;2.30;;;;;;;;;;5082997;28;20870;-80
2023/08/02 14:32:05;;;;;;;3.07;2.77;;;;;;;;;;5082231;28;20856;-82
2023/08/02 14:34:31;;;;;;;3.27;2.20;;;;;;;;;;5080885;28;20791;-80
2023/08/02 14:36:59;;;;;;;2.57;2.37;;;;;;;;;;5083505;28;20948;-81